BOX504 EDDF-UZTT
Flight info
| Callsign | BOX504 |
|---|---|
| Flight time | 5h 56m |
| Altitude | 31000 |
| Route | SULUS4D SULUS Z650 VEMUT DCT LANUX DCT ERGOM DCT TUVNU DCT ALOXU DCT VEVIN DCT DINRO/N0479F330 N743 UDROS UM859 KARDE UN644 ROLIN N644 LAGAS M747 LUSAL N199 RASAM L88 METKA B476 DARVA/K0882F330 T898 OGOLI N193 DIBAD DIBAD2T |
| Aircraft | B77L/H-SDE1E2E3FGHIJ2J3J4J5M1RWXY/LB1D1 |
Departure
| Time | 2026-04-15 07:15 |
|---|---|
| Airport | Frankfurt Main Airport (EDDF) |
Arrival
| Time | 2026-04-15 13:11 |
|---|---|
| Airport | Tashkent International Airport (UZTT) |
| Time | Latitude | Longitude | Altitude | Speed | Heading |
|---|---|---|---|---|---|
| 2026-04-15 06:36 | 50.03716 | 8.53096 | 346 ft | 0 kts | 339° |
| 2026-04-15 07:02 | 50.03695 | 8.53108 | 346 ft | 4 kts | 340° |
| 2026-04-15 07:03 | 50.03670 | 8.53122 | 345 ft | 4 kts | 341° |
| 2026-04-15 07:03 | 50.03645 | 8.53129 | 345 ft | 4 kts | 12° |
| 2026-04-15 07:03 | 50.03623 | 8.53111 | 345 ft | 4 kts | 51° |
| 2026-04-15 07:03 | 50.03609 | 8.53076 | 355 ft | 4 kts | 69° |
| 2026-04-15 07:04 | 50.03602 | 8.53045 | 344 ft | 4 kts | 71° |
| 2026-04-15 07:04 | 50.03593 | 8.53006 | 355 ft | 4 kts | 69° |
| 2026-04-15 07:04 | 50.03584 | 8.52966 | 355 ft | 4 kts | 68° |
| 2026-04-15 07:04 | 50.03574 | 8.52927 | 344 ft | 4 kts | 69° |
| 2026-04-15 07:05 | 50.03572 | 8.52919 | 344 ft | 3 kts | 69° |
| 2026-04-15 07:09 | 50.03576 | 8.52935 | 344 ft | 3 kts | 69° |
| 2026-04-15 07:10 | 50.03586 | 8.52977 | 354 ft | 5 kts | 69° |
| 2026-04-15 07:10 | 50.03602 | 8.53044 | 353 ft | 8 kts | 69° |
| 2026-04-15 07:10 | 50.03622 | 8.53127 | 352 ft | 8 kts | 69° |
| 2026-04-15 07:10 | 50.03642 | 8.53209 | 358 ft | 8 kts | 69° |
| 2026-04-15 07:11 | 50.03661 | 8.53292 | 355 ft | 8 kts | 69° |
| 2026-04-15 07:11 | 50.03681 | 8.53374 | 357 ft | 8 kts | 69° |
| 2026-04-15 07:11 | 50.03701 | 8.53457 | 355 ft | 8 kts | 69° |
| 2026-04-15 07:11 | 50.03707 | 8.53541 | 355 ft | 8 kts | 116° |
| 2026-04-15 07:12 | 50.03658 | 8.53576 | 346 ft | 8 kts | 183° |
| 2026-04-15 07:12 | 50.03602 | 8.53546 | 355 ft | 9 kts | 205° |
| 2026-04-15 07:12 | 50.03549 | 8.53506 | 353 ft | 9 kts | 205° |
| 2026-04-15 07:12 | 50.03495 | 8.53467 | 348 ft | 9 kts | 205° |
| 2026-04-15 07:13 | 50.03440 | 8.53437 | 348 ft | 9 kts | 186° |
| 2026-04-15 07:13 | 50.03385 | 8.53466 | 347 ft | 9 kts | 139° |
| 2026-04-15 07:13 | 50.03349 | 8.53540 | 351 ft | 9 kts | 126° |
| 2026-04-15 07:13 | 50.03316 | 8.53618 | 347 ft | 9 kts | 114° |
| 2026-04-15 07:14 | 50.03321 | 8.53709 | 356 ft | 10 kts | 70° |
| 2026-04-15 07:14 | 50.03391 | 8.54001 | 352 ft | 61 kts | 70° |
| 2026-04-15 07:14 | 50.03627 | 8.54990 | 355 ft | 133 kts | 70° |
| 2026-04-15 07:14 | 50.04025 | 8.56635 | 391 ft | 186 kts | 69° |
| 2026-04-15 07:15 | 50.04482 | 8.58579 | 848 ft | 198 kts | 70° |
| 2026-04-15 07:15 | 50.04969 | 8.60743 | 1144 ft | 226 kts | 71° |
| 2026-04-15 07:15 | 50.05500 | 8.63120 | 1825 ft | 236 kts | 72° |
| 2026-04-15 07:15 | 50.06048 | 8.65564 | 2621 ft | 245 kts | 72° |
| 2026-04-15 07:16 | 50.06607 | 8.68084 | 3361 ft | 249 kts | 71° |
| 2026-04-15 07:16 | 50.07131 | 8.70664 | 3960 ft | 251 kts | 80° |
| 2026-04-15 07:16 | 50.07041 | 8.73375 | 4478 ft | 254 kts | 102° |
| 2026-04-15 07:16 | 50.06675 | 8.76092 | 5048 ft | 259 kts | 99° |
| 2026-04-15 07:17 | 50.06368 | 8.78866 | 5735 ft | 262 kts | 99° |
| 2026-04-15 07:17 | 50.06054 | 8.81683 | 6344 ft | 268 kts | 100° |
| 2026-04-15 07:17 | 50.05741 | 8.84573 | 6906 ft | 272 kts | 97° |
| 2026-04-15 07:17 | 50.05669 | 8.87541 | 7470 ft | 277 kts | 89° |
| 2026-04-15 07:18 | 50.05747 | 8.90546 | 8093 ft | 279 kts | 88° |
| 2026-04-15 07:18 | 50.05841 | 8.93579 | 8698 ft | 282 kts | 88° |
| 2026-04-15 07:18 | 50.05925 | 8.96657 | 9291 ft | 286 kts | 88° |
| 2026-04-15 07:18 | 50.05997 | 8.99778 | 9874 ft | 290 kts | 88° |
| 2026-04-15 07:19 | 50.06061 | 9.02932 | 10447 ft | 294 kts | 88° |
| 2026-04-15 07:19 | 50.06119 | 9.06188 | 10701 ft | 310 kts | 88° |
| 2026-04-15 07:19 | 50.06177 | 9.09655 | 10850 ft | 330 kts | 89° |
| 2026-04-15 07:19 | 50.06233 | 9.13326 | 11025 ft | 350 kts | 89° |
| 2026-04-15 07:20 | 50.06292 | 9.17221 | 11187 ft | 369 kts | 89° |
| 2026-04-15 07:20 | 50.06350 | 9.21265 | 11631 ft | 379 kts | 89° |
| 2026-04-15 07:20 | 50.06408 | 9.25390 | 12223 ft | 384 kts | 89° |
| 2026-04-15 07:20 | 50.06465 | 9.29567 | 12861 ft | 388 kts | 89° |
| 2026-04-15 07:21 | 50.06519 | 9.33785 | 13533 ft | 392 kts | 89° |
| 2026-04-15 07:21 | 50.06571 | 9.37985 | 14166 ft | 395 kts | 89° |
| 2026-04-15 07:21 | 50.06624 | 9.42278 | 14740 ft | 399 kts | 89° |
| 2026-04-15 07:21 | 50.06677 | 9.46617 | 15338 ft | 402 kts | 88° |
| 2026-04-15 07:22 | 50.06728 | 9.50981 | 15959 ft | 405 kts | 88° |
| 2026-04-15 07:22 | 50.06776 | 9.55372 | 16560 ft | 407 kts | 88° |
| 2026-04-15 07:22 | 50.06826 | 9.59796 | 17150 ft | 410 kts | 88° |
| 2026-04-15 07:22 | 50.06875 | 9.64257 | 17752 ft | 413 kts | 88° |
| 2026-04-15 07:23 | 50.06920 | 9.68733 | 18378 ft | 415 kts | 88° |
| 2026-04-15 07:23 | 50.06964 | 9.73248 | 18889 ft | 419 kts | 88° |
| 2026-04-15 07:23 | 50.07006 | 9.77802 | 19362 ft | 422 kts | 88° |
| 2026-04-15 07:23 | 50.07045 | 9.82392 | 19852 ft | 426 kts | 88° |
| 2026-04-15 07:24 | 50.07085 | 9.87010 | 20341 ft | 428 kts | 88° |
| 2026-04-15 07:24 | 50.07124 | 9.91660 | 20847 ft | 431 kts | 88° |
| 2026-04-15 07:24 | 50.07160 | 9.96341 | 21314 ft | 434 kts | 88° |
| 2026-04-15 07:24 | 50.07194 | 10.01057 | 21787 ft | 437 kts | 88° |
| 2026-04-15 07:25 | 50.07227 | 10.05804 | 22256 ft | 440 kts | 88° |
| 2026-04-15 07:25 | 50.07258 | 10.10586 | 22744 ft | 443 kts | 87° |
| 2026-04-15 07:25 | 50.07288 | 10.15391 | 23240 ft | 445 kts | 87° |
| 2026-04-15 07:25 | 50.07316 | 10.20227 | 23705 ft | 448 kts | 87° |
| 2026-04-15 07:26 | 50.07341 | 10.25097 | 24096 ft | 452 kts | 87° |
| 2026-04-15 07:26 | 50.07366 | 10.29996 | 24482 ft | 454 kts | 87° |
| 2026-04-15 07:26 | 50.07389 | 10.34927 | 24882 ft | 457 kts | 87° |
| 2026-04-15 07:26 | 50.07408 | 10.39879 | 25275 ft | 459 kts | 87° |
| 2026-04-15 07:27 | 50.07429 | 10.44859 | 25646 ft | 462 kts | 86° |
| 2026-04-15 07:27 | 50.07448 | 10.49871 | 26027 ft | 464 kts | 86° |
| 2026-04-15 07:27 | 50.07463 | 10.54906 | 26412 ft | 467 kts | 86° |
| 2026-04-15 07:27 | 50.07476 | 10.59970 | 26869 ft | 468 kts | 86° |
| 2026-04-15 07:28 | 50.07488 | 10.65035 | 27306 ft | 469 kts | 86° |
| 2026-04-15 07:28 | 50.07496 | 10.70116 | 27657 ft | 472 kts | 86° |
| 2026-04-15 07:28 | 50.07257 | 10.75247 | 27964 ft | 481 kts | 98° |
| 2026-04-15 07:28 | 50.06285 | 10.80284 | 28295 ft | 489 kts | 106° |
| 2026-04-15 07:29 | 50.05108 | 10.85251 | 28637 ft | 491 kts | 106° |
| 2026-04-15 07:29 | 50.03938 | 10.90247 | 28938 ft | 493 kts | 105° |
| 2026-04-15 07:29 | 50.02804 | 10.95293 | 29211 ft | 496 kts | 105° |
| 2026-04-15 07:29 | 50.01706 | 11.00380 | 29528 ft | 497 kts | 104° |
| 2026-04-15 07:30 | 50.00629 | 11.05482 | 30040 ft | 495 kts | 104° |
| 2026-04-15 07:30 | 49.99561 | 11.10550 | 30538 ft | 493 kts | 103° |
| 2026-04-15 07:30 | 49.98490 | 11.15611 | 30869 ft | 493 kts | 103° |
| 2026-04-15 07:30 | 49.97411 | 11.20678 | 31133 ft | 495 kts | 103° |
| 2026-04-15 07:31 | 49.95223 | 11.30914 | 31265 ft | 500 kts | 103° |
| 2026-04-15 07:31 | 49.93031 | 11.41114 | 31261 ft | 495 kts | 103° |
| 2026-04-15 07:32 | 49.91120 | 11.51288 | 31268 ft | 489 kts | 100° |
| 2026-04-15 07:32 | 49.89352 | 11.61377 | 31257 ft | 487 kts | 101° |
| 2026-04-15 07:33 | 49.87758 | 11.71534 | 31244 ft | 481 kts | 93° |
| 2026-04-15 07:33 | 49.86926 | 11.81818 | 31250 ft | 482 kts | 92° |
| 2026-04-15 07:34 | 49.86045 | 11.92130 | 31255 ft | 484 kts | 93° |
| 2026-04-15 07:34 | 49.85113 | 12.02481 | 31250 ft | 486 kts | 93° |
| 2026-04-15 07:35 | 49.84159 | 12.12854 | 31244 ft | 486 kts | 93° |
| 2026-04-15 07:35 | 49.83193 | 12.23215 | 31264 ft | 486 kts | 93° |
| 2026-04-15 07:36 | 49.82242 | 12.33568 | 31279 ft | 486 kts | 93° |
| 2026-04-15 07:36 | 49.81202 | 12.43905 | 31254 ft | 488 kts | 98° |
| 2026-04-15 07:37 | 49.79069 | 12.53921 | 31265 ft | 493 kts | 109° |
| 2026-04-15 07:37 | 49.76319 | 12.63635 | 31264 ft | 493 kts | 109° |
| 2026-04-15 07:38 | 49.73589 | 12.73348 | 31283 ft | 492 kts | 109° |
| 2026-04-15 07:38 | 49.70884 | 12.83064 | 31270 ft | 492 kts | 109° |
| 2026-04-15 07:39 | 49.68180 | 12.92774 | 31259 ft | 492 kts | 109° |
| 2026-04-15 07:39 | 49.65475 | 13.02457 | 31261 ft | 491 kts | 110° |
| 2026-04-15 07:40 | 49.62761 | 13.12128 | 31265 ft | 491 kts | 110° |
| 2026-04-15 07:40 | 49.60037 | 13.21789 | 31287 ft | 491 kts | 110° |
| 2026-04-15 07:41 | 49.57303 | 13.31438 | 31294 ft | 491 kts | 110° |
| 2026-04-15 07:41 | 49.54560 | 13.41088 | 31293 ft | 492 kts | 110° |
| 2026-04-15 07:42 | 49.51807 | 13.50733 | 31279 ft | 492 kts | 110° |
| 2026-04-15 07:42 | 49.49044 | 13.60378 | 31282 ft | 493 kts | 111° |
| 2026-04-15 07:43 | 49.46271 | 13.70009 | 31261 ft | 493 kts | 111° |
| 2026-04-15 07:43 | 49.43494 | 13.79626 | 31266 ft | 492 kts | 111° |
| 2026-04-15 07:44 | 49.40710 | 13.89218 | 31261 ft | 491 kts | 111° |
| 2026-04-15 07:44 | 49.37921 | 13.98793 | 31274 ft | 491 kts | 112° |
| 2026-04-15 07:45 | 49.35126 | 14.08357 | 31273 ft | 491 kts | 112° |
| 2026-04-15 07:45 | 49.32318 | 14.17914 | 31274 ft | 492 kts | 112° |
| 2026-04-15 07:46 | 49.29507 | 14.27458 | 31269 ft | 491 kts | 112° |
| 2026-04-15 07:46 | 49.26708 | 14.36928 | 31271 ft | 491 kts | 113° |
| 2026-04-15 07:47 | 49.23880 | 14.46446 | 31257 ft | 491 kts | 113° |
| 2026-04-15 07:47 | 49.21040 | 14.55964 | 31249 ft | 492 kts | 113° |
| 2026-04-15 07:48 | 49.18194 | 14.65472 | 31266 ft | 491 kts | 113° |
| 2026-04-15 07:48 | 49.15346 | 14.74955 | 31273 ft | 491 kts | 114° |
| 2026-04-15 07:49 | 49.12489 | 14.84424 | 31264 ft | 491 kts | 114° |
| 2026-04-15 07:49 | 49.09624 | 14.93889 | 31274 ft | 491 kts | 114° |
| 2026-04-15 07:50 | 49.06749 | 15.03349 | 31258 ft | 492 kts | 114° |
| 2026-04-15 07:50 | 49.03865 | 15.12794 | 31255 ft | 491 kts | 114° |
| 2026-04-15 07:51 | 49.00972 | 15.22236 | 31259 ft | 492 kts | 115° |
| 2026-04-15 07:51 | 48.98075 | 15.31663 | 31262 ft | 492 kts | 115° |
| 2026-04-15 07:52 | 48.95166 | 15.41090 | 31257 ft | 492 kts | 115° |
| 2026-04-15 07:52 | 48.92746 | 15.48906 | 31253 ft | 492 kts | 115° |
| 2026-04-15 07:53 | 48.89827 | 15.58301 | 31255 ft | 491 kts | 116° |
| 2026-04-15 07:53 | 48.86864 | 15.67655 | 31266 ft | 491 kts | 117° |
| 2026-04-15 07:54 | 48.83817 | 15.76920 | 31244 ft | 490 kts | 117° |
| 2026-04-15 07:54 | 48.80756 | 15.86172 | 31262 ft | 490 kts | 117° |
| 2026-04-15 07:55 | 48.77695 | 15.95421 | 31238 ft | 491 kts | 117° |
| 2026-04-15 07:56 | 48.73098 | 16.09303 | 31242 ft | 491 kts | 117° |
| 2026-04-15 07:56 | 48.70025 | 16.18545 | 31260 ft | 491 kts | 117° |
| 2026-04-15 07:57 | 48.66942 | 16.27775 | 31256 ft | 492 kts | 117° |
| 2026-04-15 07:57 | 48.63847 | 16.37011 | 31251 ft | 493 kts | 118° |
| 2026-04-15 07:58 | 48.60738 | 16.46255 | 31231 ft | 494 kts | 118° |
| 2026-04-15 07:58 | 48.57618 | 16.55497 | 31231 ft | 494 kts | 118° |
| 2026-04-15 07:59 | 48.54494 | 16.64721 | 31249 ft | 493 kts | 118° |
| 2026-04-15 07:59 | 48.51365 | 16.73933 | 31242 ft | 494 kts | 118° |
| 2026-04-15 08:00 | 48.48224 | 16.83139 | 31230 ft | 494 kts | 118° |
| 2026-04-15 08:00 | 48.45069 | 16.92346 | 31208 ft | 495 kts | 118° |
| 2026-04-15 08:01 | 48.41911 | 17.01538 | 31236 ft | 494 kts | 119° |
| 2026-04-15 08:01 | 48.38737 | 17.10733 | 31202 ft | 495 kts | 119° |
| 2026-04-15 08:02 | 48.35566 | 17.19908 | 31214 ft | 494 kts | 119° |
| 2026-04-15 08:02 | 48.32388 | 17.29059 | 31215 ft | 493 kts | 119° |
| 2026-04-15 08:03 | 48.29206 | 17.38186 | 31217 ft | 493 kts | 119° |
| 2026-04-15 08:03 | 48.26018 | 17.47300 | 31207 ft | 493 kts | 119° |
| 2026-04-15 08:04 | 48.22820 | 17.56410 | 31213 ft | 493 kts | 119° |
| 2026-04-15 08:04 | 48.19637 | 17.65451 | 31211 ft | 494 kts | 119° |
| 2026-04-15 08:05 | 48.16420 | 17.74549 | 31212 ft | 494 kts | 120° |
| 2026-04-15 08:05 | 48.13193 | 17.83649 | 31209 ft | 495 kts | 120° |
| 2026-04-15 08:06 | 48.09958 | 17.92745 | 31207 ft | 495 kts | 120° |
| 2026-04-15 08:06 | 48.06713 | 18.01829 | 31213 ft | 495 kts | 120° |
| 2026-04-15 08:07 | 48.03463 | 18.10899 | 31211 ft | 495 kts | 120° |
| 2026-04-15 08:07 | 48.00204 | 18.19961 | 31204 ft | 495 kts | 120° |
| 2026-04-15 08:08 | 47.96938 | 18.29004 | 31208 ft | 494 kts | 120° |
| 2026-04-15 08:08 | 47.93677 | 18.38025 | 31210 ft | 494 kts | 120° |
| 2026-04-15 08:09 | 47.90399 | 18.47045 | 31217 ft | 495 kts | 120° |
| 2026-04-15 08:09 | 47.87116 | 18.56056 | 31209 ft | 495 kts | 120° |
| 2026-04-15 08:10 | 47.83826 | 18.65047 | 31211 ft | 495 kts | 120° |
| 2026-04-15 08:10 | 47.80546 | 18.74034 | 31216 ft | 492 kts | 119° |
| 2026-04-15 08:11 | 47.77546 | 18.83199 | 31217 ft | 494 kts | 117° |
| 2026-04-15 08:11 | 47.74601 | 18.92465 | 31234 ft | 496 kts | 117° |
| 2026-04-15 08:12 | 47.71623 | 19.01696 | 31217 ft | 495 kts | 117° |
| 2026-04-15 08:12 | 47.68634 | 19.10926 | 31202 ft | 496 kts | 117° |
| 2026-04-15 08:13 | 47.65668 | 19.20070 | 31207 ft | 495 kts | 117° |
| 2026-04-15 08:13 | 47.62668 | 19.29252 | 31206 ft | 495 kts | 117° |
| 2026-04-15 08:14 | 47.59648 | 19.38428 | 31224 ft | 496 kts | 118° |
| 2026-04-15 08:14 | 47.56624 | 19.47636 | 31204 ft | 497 kts | 117° |
| 2026-04-15 08:15 | 47.53590 | 19.56835 | 31202 ft | 497 kts | 118° |
| 2026-04-15 08:15 | 47.50543 | 19.65996 | 31208 ft | 496 kts | 118° |
| 2026-04-15 08:16 | 47.47497 | 19.75144 | 31212 ft | 496 kts | 118° |
| 2026-04-15 08:16 | 47.44445 | 19.84279 | 31211 ft | 496 kts | 118° |
| 2026-04-15 08:17 | 47.41386 | 19.93395 | 31206 ft | 496 kts | 118° |
| 2026-04-15 08:17 | 47.38316 | 20.02527 | 31211 ft | 497 kts | 118° |
| 2026-04-15 08:18 | 47.35232 | 20.11657 | 31211 ft | 497 kts | 118° |
| 2026-04-15 08:18 | 47.32143 | 20.20773 | 31216 ft | 497 kts | 118° |
| 2026-04-15 08:19 | 47.29044 | 20.29876 | 31209 ft | 497 kts | 118° |
| 2026-04-15 08:19 | 47.25925 | 20.38982 | 31200 ft | 499 kts | 118° |
| 2026-04-15 08:20 | 47.22859 | 20.48149 | 31214 ft | 499 kts | 118° |
| 2026-04-15 08:20 | 47.19700 | 20.57232 | 31198 ft | 498 kts | 119° |
| 2026-04-15 08:21 | 47.16536 | 20.66294 | 31197 ft | 498 kts | 119° |
| 2026-04-15 08:21 | 47.13395 | 20.75384 | 31215 ft | 499 kts | 118° |
| 2026-04-15 08:22 | 47.10347 | 20.84505 | 31203 ft | 496 kts | 118° |
| 2026-04-15 08:22 | 47.07202 | 20.93459 | 31217 ft | 498 kts | 120° |
| 2026-04-15 08:23 | 47.03983 | 21.02463 | 31212 ft | 499 kts | 119° |
| 2026-04-15 08:23 | 47.00782 | 21.11522 | 31213 ft | 501 kts | 119° |
| 2026-04-15 08:24 | 46.97592 | 21.20624 | 31216 ft | 503 kts | 119° |
| 2026-04-15 08:24 | 46.94387 | 21.29718 | 31205 ft | 503 kts | 119° |
| 2026-04-15 08:25 | 46.91174 | 21.38784 | 31204 ft | 501 kts | 119° |
| 2026-04-15 08:25 | 46.87960 | 21.47819 | 31209 ft | 500 kts | 119° |
| 2026-04-15 08:26 | 46.84746 | 21.56830 | 31210 ft | 500 kts | 119° |
| 2026-04-15 08:26 | 46.81531 | 21.65820 | 31208 ft | 499 kts | 119° |
| 2026-04-15 08:27 | 46.78278 | 21.74766 | 31205 ft | 499 kts | 120° |
| 2026-04-15 08:27 | 46.74981 | 21.83665 | 31207 ft | 498 kts | 120° |
| 2026-04-15 08:28 | 46.71682 | 21.92552 | 31207 ft | 499 kts | 120° |
| 2026-04-15 08:28 | 46.68379 | 22.01446 | 31200 ft | 499 kts | 120° |
| 2026-04-15 08:29 | 46.65070 | 22.10334 | 31197 ft | 499 kts | 120° |
| 2026-04-15 08:29 | 46.61750 | 22.19219 | 31203 ft | 500 kts | 120° |
| 2026-04-15 08:30 | 46.58425 | 22.28096 | 31202 ft | 500 kts | 120° |
| 2026-04-15 08:30 | 46.55096 | 22.36959 | 31191 ft | 499 kts | 120° |
| 2026-04-15 08:31 | 46.51757 | 22.45802 | 31200 ft | 499 kts | 120° |
| 2026-04-15 08:31 | 46.48415 | 22.54625 | 31198 ft | 499 kts | 120° |
| 2026-04-15 08:32 | 46.45066 | 22.63449 | 31198 ft | 499 kts | 120° |
| 2026-04-15 08:32 | 46.41711 | 22.72254 | 31196 ft | 499 kts | 120° |
| 2026-04-15 08:33 | 46.38354 | 22.81045 | 31197 ft | 499 kts | 120° |
| 2026-04-15 08:33 | 46.34984 | 22.89832 | 31195 ft | 499 kts | 121° |
| 2026-04-15 08:34 | 46.31607 | 22.98606 | 31195 ft | 499 kts | 121° |
| 2026-04-15 08:34 | 46.28224 | 23.07376 | 31188 ft | 500 kts | 121° |
| 2026-04-15 08:35 | 46.24831 | 23.16145 | 31192 ft | 500 kts | 121° |
| 2026-04-15 08:35 | 46.21425 | 23.24908 | 31186 ft | 500 kts | 121° |
| 2026-04-15 08:36 | 46.18037 | 23.33603 | 31210 ft | 500 kts | 121° |
| 2026-04-15 08:36 | 46.14619 | 23.42353 | 31208 ft | 501 kts | 121° |
| 2026-04-15 08:37 | 46.11193 | 23.51087 | 31216 ft | 501 kts | 121° |
| 2026-04-15 08:37 | 46.07760 | 23.59810 | 31208 ft | 501 kts | 121° |
| 2026-04-15 08:38 | 46.04320 | 23.68530 | 31212 ft | 501 kts | 121° |
| 2026-04-15 08:38 | 46.00874 | 23.77240 | 31221 ft | 501 kts | 121° |
| 2026-04-15 08:39 | 45.97414 | 23.85948 | 31207 ft | 501 kts | 121° |
| 2026-04-15 08:39 | 45.94534 | 23.93181 | 31217 ft | 501 kts | 121° |
| 2026-04-15 08:40 | 45.91063 | 24.01866 | 31205 ft | 501 kts | 121° |
| 2026-04-15 08:40 | 45.87568 | 24.10596 | 31219 ft | 501 kts | 121° |
| 2026-04-15 08:41 | 45.84086 | 24.19262 | 31208 ft | 502 kts | 121° |
| 2026-04-15 08:41 | 45.80594 | 24.27925 | 31211 ft | 501 kts | 121° |
| 2026-04-15 08:42 | 45.77083 | 24.36556 | 31192 ft | 501 kts | 123° |
| 2026-04-15 08:42 | 45.73389 | 24.44930 | 31205 ft | 500 kts | 124° |
| 2026-04-15 08:43 | 45.69594 | 24.53283 | 31199 ft | 501 kts | 124° |
| 2026-04-15 08:43 | 45.65813 | 24.61647 | 31206 ft | 501 kts | 124° |
| 2026-04-15 08:44 | 45.62042 | 24.70034 | 31201 ft | 501 kts | 124° |
| 2026-04-15 08:44 | 45.58274 | 24.78418 | 31206 ft | 501 kts | 124° |
| 2026-04-15 08:45 | 45.54502 | 24.86791 | 31208 ft | 501 kts | 124° |
| 2026-04-15 08:45 | 45.50716 | 24.95142 | 31205 ft | 502 kts | 124° |
| 2026-04-15 08:46 | 45.46925 | 25.03501 | 31197 ft | 503 kts | 124° |
| 2026-04-15 08:46 | 45.43120 | 25.11865 | 31188 ft | 503 kts | 124° |
| 2026-04-15 08:47 | 45.39310 | 25.20208 | 31210 ft | 502 kts | 124° |
| 2026-04-15 08:47 | 45.35490 | 25.28546 | 31205 ft | 504 kts | 125° |
| 2026-04-15 08:48 | 45.31659 | 25.36890 | 31193 ft | 504 kts | 125° |
| 2026-04-15 08:48 | 45.27821 | 25.45223 | 31201 ft | 504 kts | 125° |
| 2026-04-15 08:49 | 45.23974 | 25.53550 | 31213 ft | 504 kts | 125° |
| 2026-04-15 08:49 | 45.20123 | 25.61861 | 31221 ft | 504 kts | 125° |
| 2026-04-15 08:50 | 45.16262 | 25.70160 | 31217 ft | 504 kts | 125° |
| 2026-04-15 08:50 | 45.12399 | 25.78456 | 31230 ft | 505 kts | 125° |
| 2026-04-15 08:51 | 45.08550 | 25.86694 | 31244 ft | 505 kts | 125° |
| 2026-04-15 08:51 | 45.04664 | 25.94980 | 31238 ft | 505 kts | 125° |
| 2026-04-15 08:52 | 45.00776 | 26.03254 | 31245 ft | 506 kts | 126° |
| 2026-04-15 08:52 | 44.96876 | 26.11525 | 31253 ft | 506 kts | 126° |
| 2026-04-15 08:53 | 44.92966 | 26.19790 | 31256 ft | 506 kts | 126° |
| 2026-04-15 08:53 | 44.89055 | 26.28047 | 31239 ft | 506 kts | 126° |
| 2026-04-15 08:54 | 44.85134 | 26.36291 | 31252 ft | 506 kts | 126° |
| 2026-04-15 08:54 | 44.81199 | 26.44534 | 31258 ft | 507 kts | 126° |
| 2026-04-15 08:55 | 44.77256 | 26.52779 | 31259 ft | 508 kts | 126° |
| 2026-04-15 08:55 | 44.73304 | 26.61032 | 31257 ft | 509 kts | 126° |
| 2026-04-15 08:56 | 44.69365 | 26.69313 | 31260 ft | 510 kts | 125° |
| 2026-04-15 08:56 | 44.65550 | 26.77722 | 31278 ft | 513 kts | 124° |
| 2026-04-15 08:56 | 44.63643 | 26.81973 | 31491 ft | 515 kts | 124° |
| 2026-04-15 08:57 | 44.61729 | 26.86217 | 31894 ft | 514 kts | 124° |
| 2026-04-15 08:57 | 44.59817 | 26.90436 | 32340 ft | 511 kts | 124° |
| 2026-04-15 08:57 | 44.57910 | 26.94624 | 32778 ft | 508 kts | 124° |
| 2026-04-15 08:57 | 44.56005 | 26.98792 | 33201 ft | 507 kts | 124° |
| 2026-04-15 08:58 | 44.54091 | 27.02964 | 33258 ft | 512 kts | 124° |
| 2026-04-15 08:58 | 44.48329 | 27.15502 | 33251 ft | 506 kts | 124° |
| 2026-04-15 08:59 | 44.44550 | 27.23700 | 33264 ft | 504 kts | 124° |
| 2026-04-15 08:59 | 44.40740 | 27.31933 | 33247 ft | 504 kts | 124° |
| 2026-04-15 09:00 | 44.36923 | 27.40161 | 33256 ft | 505 kts | 124° |
| 2026-04-15 09:00 | 44.33088 | 27.48404 | 33262 ft | 507 kts | 124° |
| 2026-04-15 09:01 | 44.29240 | 27.56656 | 33252 ft | 508 kts | 124° |
| 2026-04-15 09:01 | 44.25371 | 27.64926 | 33278 ft | 509 kts | 125° |
| 2026-04-15 09:02 | 44.21491 | 27.73197 | 33254 ft | 510 kts | 125° |
| 2026-04-15 09:02 | 44.17600 | 27.81470 | 33278 ft | 511 kts | 125° |
| 2026-04-15 09:03 | 44.13696 | 27.89747 | 33260 ft | 512 kts | 125° |
| 2026-04-15 09:03 | 44.09779 | 27.98020 | 33264 ft | 512 kts | 125° |
| 2026-04-15 09:04 | 44.05859 | 28.06282 | 33262 ft | 512 kts | 125° |
| 2026-04-15 09:04 | 44.01926 | 28.14548 | 33264 ft | 513 kts | 125° |
| 2026-04-15 09:05 | 43.97987 | 28.22805 | 33261 ft | 513 kts | 125° |
| 2026-04-15 09:05 | 43.94044 | 28.31045 | 33272 ft | 512 kts | 126° |
| 2026-04-15 09:06 | 43.90097 | 28.39265 | 33256 ft | 512 kts | 126° |
| 2026-04-15 09:06 | 43.86175 | 28.47410 | 33254 ft | 511 kts | 126° |
| 2026-04-15 09:07 | 43.82226 | 28.55599 | 33253 ft | 511 kts | 126° |
| 2026-04-15 09:07 | 43.78270 | 28.63780 | 33276 ft | 512 kts | 126° |
| 2026-04-15 09:08 | 43.74299 | 28.71960 | 33286 ft | 512 kts | 126° |
| 2026-04-15 09:08 | 43.70323 | 28.80135 | 33274 ft | 513 kts | 126° |
| 2026-04-15 09:09 | 43.66239 | 28.88202 | 33288 ft | 512 kts | 128° |
| 2026-04-15 09:09 | 43.62020 | 28.96151 | 33298 ft | 513 kts | 129° |
| 2026-04-15 09:10 | 43.57806 | 29.04088 | 33283 ft | 514 kts | 128° |
| 2026-04-15 09:10 | 43.53600 | 29.12054 | 33300 ft | 514 kts | 128° |
| 2026-04-15 09:11 | 43.49396 | 29.20036 | 33275 ft | 515 kts | 128° |
| 2026-04-15 09:11 | 43.45184 | 29.28001 | 33291 ft | 514 kts | 128° |
| 2026-04-15 09:12 | 43.40964 | 29.35956 | 33295 ft | 515 kts | 129° |
| 2026-04-15 09:12 | 43.36741 | 29.43900 | 33293 ft | 515 kts | 129° |
| 2026-04-15 09:13 | 43.32506 | 29.51842 | 33295 ft | 515 kts | 129° |
| 2026-04-15 09:13 | 43.28261 | 29.59775 | 33294 ft | 516 kts | 129° |
| 2026-04-15 09:14 | 43.24007 | 29.67701 | 33291 ft | 516 kts | 129° |
| 2026-04-15 09:14 | 43.19753 | 29.75617 | 33295 ft | 516 kts | 129° |
| 2026-04-15 09:15 | 43.15489 | 29.83533 | 33293 ft | 516 kts | 129° |
| 2026-04-15 09:15 | 43.11219 | 29.91431 | 33291 ft | 516 kts | 129° |
| 2026-04-15 09:16 | 43.06944 | 29.99316 | 33286 ft | 516 kts | 129° |
| 2026-04-15 09:16 | 43.02659 | 30.07203 | 33284 ft | 517 kts | 129° |
| 2026-04-15 09:17 | 42.98370 | 30.15076 | 33288 ft | 516 kts | 129° |
| 2026-04-15 09:17 | 42.94072 | 30.22941 | 33278 ft | 517 kts | 130° |
| 2026-04-15 09:18 | 42.89763 | 30.30812 | 33290 ft | 518 kts | 130° |
| 2026-04-15 09:18 | 42.85448 | 30.38667 | 33285 ft | 518 kts | 130° |
| 2026-04-15 09:19 | 42.81127 | 30.46518 | 33284 ft | 518 kts | 130° |
| 2026-04-15 09:19 | 42.76824 | 30.54404 | 33284 ft | 520 kts | 126° |
| 2026-04-15 09:20 | 42.73739 | 30.63335 | 33287 ft | 525 kts | 108° |
| 2026-04-15 09:20 | 42.72386 | 30.73010 | 33288 ft | 525 kts | 97° |
| 2026-04-15 09:21 | 42.71489 | 30.82893 | 33285 ft | 527 kts | 97° |
| 2026-04-15 09:21 | 42.70531 | 30.92781 | 33282 ft | 528 kts | 97° |
| 2026-04-15 09:22 | 42.69519 | 31.02674 | 33280 ft | 529 kts | 98° |
| 2026-04-15 09:22 | 42.68482 | 31.12576 | 33269 ft | 529 kts | 98° |
| 2026-04-15 09:23 | 42.67437 | 31.22488 | 33282 ft | 530 kts | 98° |
| 2026-04-15 09:23 | 42.66389 | 31.32404 | 33279 ft | 531 kts | 98° |
| 2026-04-15 09:24 | 42.65330 | 31.42330 | 33284 ft | 531 kts | 98° |
| 2026-04-15 09:24 | 42.64264 | 31.52245 | 33271 ft | 531 kts | 98° |
| 2026-04-15 09:25 | 42.63188 | 31.62158 | 33280 ft | 530 kts | 98° |
| 2026-04-15 09:25 | 42.62288 | 31.70391 | 33275 ft | 530 kts | 98° |
| 2026-04-15 09:26 | 42.61199 | 31.80287 | 33272 ft | 530 kts | 98° |
| 2026-04-15 09:26 | 42.60101 | 31.90175 | 33271 ft | 530 kts | 98° |
| 2026-04-15 09:27 | 42.58995 | 32.00075 | 33277 ft | 531 kts | 98° |
| 2026-04-15 09:27 | 42.57790 | 32.09962 | 33274 ft | 531 kts | 99° |
| 2026-04-15 09:28 | 42.56643 | 32.19864 | 33276 ft | 532 kts | 98° |
| 2026-04-15 09:28 | 42.55530 | 32.29786 | 33273 ft | 532 kts | 98° |
| 2026-04-15 09:29 | 42.54393 | 32.39709 | 33269 ft | 533 kts | 98° |
| 2026-04-15 09:29 | 42.53235 | 32.49635 | 33275 ft | 533 kts | 98° |
| 2026-04-15 09:30 | 42.52067 | 32.59551 | 33261 ft | 533 kts | 98° |
| 2026-04-15 09:30 | 42.50890 | 32.69470 | 33271 ft | 533 kts | 98° |
| 2026-04-15 09:31 | 42.49705 | 32.79387 | 33273 ft | 533 kts | 98° |
| 2026-04-15 09:31 | 42.48512 | 32.89299 | 33275 ft | 533 kts | 98° |
| 2026-04-15 09:32 | 42.47310 | 32.99207 | 33273 ft | 533 kts | 98° |
| 2026-04-15 09:32 | 42.46102 | 33.09117 | 33273 ft | 533 kts | 98° |
| 2026-04-15 09:33 | 42.44887 | 33.19023 | 33270 ft | 533 kts | 98° |
| 2026-04-15 09:33 | 42.43675 | 33.28930 | 33255 ft | 534 kts | 98° |
| 2026-04-15 09:34 | 42.42454 | 33.38846 | 33274 ft | 534 kts | 98° |
| 2026-04-15 09:34 | 42.41213 | 33.48758 | 33278 ft | 535 kts | 99° |
| 2026-04-15 09:35 | 42.39950 | 33.58669 | 33266 ft | 534 kts | 99° |
| 2026-04-15 09:35 | 42.38681 | 33.68556 | 33267 ft | 533 kts | 99° |
| 2026-04-15 09:36 | 42.37409 | 33.78430 | 33273 ft | 533 kts | 99° |
| 2026-04-15 09:36 | 42.36131 | 33.88292 | 33269 ft | 532 kts | 99° |
| 2026-04-15 09:37 | 42.34847 | 33.98144 | 33271 ft | 532 kts | 99° |
| 2026-04-15 09:37 | 42.33563 | 34.07932 | 33270 ft | 532 kts | 99° |
| 2026-04-15 09:38 | 42.32266 | 34.17784 | 33283 ft | 533 kts | 99° |
| 2026-04-15 09:38 | 42.30957 | 34.27644 | 33280 ft | 534 kts | 99° |
| 2026-04-15 09:39 | 42.29640 | 34.37511 | 33269 ft | 534 kts | 99° |
| 2026-04-15 09:39 | 42.28301 | 34.47390 | 33297 ft | 535 kts | 99° |
| 2026-04-15 09:40 | 42.26943 | 34.57241 | 33275 ft | 532 kts | 99° |
| 2026-04-15 09:40 | 42.25590 | 34.67021 | 33265 ft | 528 kts | 99° |
| 2026-04-15 09:41 | 42.24241 | 34.76732 | 33264 ft | 526 kts | 99° |
| 2026-04-15 09:41 | 42.22892 | 34.86412 | 33278 ft | 524 kts | 99° |
| 2026-04-15 09:42 | 42.21536 | 34.96082 | 33279 ft | 525 kts | 99° |
| 2026-04-15 09:42 | 42.20173 | 35.05772 | 33289 ft | 527 kts | 99° |
| 2026-04-15 09:43 | 42.18800 | 35.15484 | 33290 ft | 528 kts | 99° |
| 2026-04-15 09:43 | 42.17409 | 35.25221 | 33285 ft | 529 kts | 99° |
| 2026-04-15 09:44 | 42.16014 | 35.34962 | 33291 ft | 529 kts | 99° |
| 2026-04-15 09:44 | 42.14611 | 35.44685 | 33294 ft | 529 kts | 100° |
| 2026-04-15 09:45 | 42.13215 | 35.54333 | 33293 ft | 517 kts | 100° |
| 2026-04-15 09:45 | 42.11845 | 35.63756 | 33288 ft | 512 kts | 100° |
| 2026-04-15 09:46 | 42.10470 | 35.73165 | 33294 ft | 513 kts | 100° |
| 2026-04-15 09:46 | 42.09084 | 35.82589 | 33301 ft | 514 kts | 100° |
| 2026-04-15 09:47 | 42.07695 | 35.91968 | 33298 ft | 515 kts | 100° |
| 2026-04-15 09:47 | 42.06287 | 36.01424 | 33299 ft | 516 kts | 100° |
| 2026-04-15 09:48 | 42.04866 | 36.10905 | 33297 ft | 517 kts | 101° |
| 2026-04-15 09:48 | 42.03442 | 36.20371 | 33300 ft | 517 kts | 101° |
| 2026-04-15 09:49 | 42.02006 | 36.29836 | 33298 ft | 516 kts | 101° |
| 2026-04-15 09:49 | 42.00565 | 36.39293 | 33303 ft | 516 kts | 101° |
| 2026-04-15 09:50 | 41.99120 | 36.48723 | 33327 ft | 514 kts | 101° |
| 2026-04-15 09:50 | 41.97671 | 36.58104 | 33300 ft | 510 kts | 101° |
| 2026-04-15 09:51 | 41.96228 | 36.67410 | 33292 ft | 507 kts | 101° |
| 2026-04-15 09:51 | 41.94788 | 36.76657 | 33293 ft | 504 kts | 101° |
| 2026-04-15 09:52 | 41.93344 | 36.85865 | 33295 ft | 504 kts | 101° |
| 2026-04-15 09:52 | 41.91897 | 36.95060 | 33311 ft | 503 kts | 101° |
| 2026-04-15 09:53 | 41.90538 | 37.04277 | 33296 ft | 504 kts | 97° |
| 2026-04-15 09:53 | 41.90171 | 37.13651 | 33311 ft | 503 kts | 89° |
| 2026-04-15 09:54 | 41.90095 | 37.23066 | 33304 ft | 505 kts | 89° |
| 2026-04-15 09:54 | 41.89982 | 37.32496 | 33323 ft | 506 kts | 90° |
| 2026-04-15 09:55 | 41.89834 | 37.41942 | 33300 ft | 507 kts | 90° |
| 2026-04-15 09:55 | 41.89668 | 37.51393 | 33313 ft | 506 kts | 90° |
| 2026-04-15 09:56 | 41.89493 | 37.60838 | 33311 ft | 506 kts | 90° |
| 2026-04-15 09:57 | 41.89227 | 37.74989 | 33305 ft | 505 kts | 90° |
| 2026-04-15 09:57 | 41.89040 | 37.84346 | 33305 ft | 505 kts | 90° |
| 2026-04-15 09:58 | 41.88841 | 37.93758 | 33309 ft | 505 kts | 90° |
| 2026-04-15 09:58 | 41.88637 | 38.03173 | 33306 ft | 505 kts | 90° |
| 2026-04-15 09:59 | 41.88425 | 38.12602 | 33318 ft | 506 kts | 90° |
| 2026-04-15 09:59 | 41.88205 | 38.22038 | 33313 ft | 506 kts | 90° |
| 2026-04-15 10:00 | 41.87976 | 38.31485 | 33313 ft | 507 kts | 90° |
| 2026-04-15 10:00 | 41.87741 | 38.40942 | 33316 ft | 507 kts | 90° |
| 2026-04-15 10:01 | 41.87497 | 38.50407 | 33316 ft | 508 kts | 90° |
| 2026-04-15 10:01 | 41.87246 | 38.59878 | 33315 ft | 508 kts | 90° |
| 2026-04-15 10:02 | 41.86986 | 38.69354 | 33319 ft | 508 kts | 90° |
| 2026-04-15 10:02 | 41.86717 | 38.78836 | 33317 ft | 509 kts | 91° |
| 2026-04-15 10:03 | 41.86443 | 38.88318 | 33321 ft | 509 kts | 90° |
| 2026-04-15 10:03 | 41.86157 | 38.97799 | 33309 ft | 509 kts | 91° |
| 2026-04-15 10:04 | 41.85869 | 39.07218 | 33326 ft | 509 kts | 90° |
| 2026-04-15 10:04 | 41.85571 | 39.16714 | 33325 ft | 510 kts | 90° |
| 2026-04-15 10:05 | 41.85260 | 39.26223 | 33316 ft | 510 kts | 90° |
| 2026-04-15 10:05 | 41.84947 | 39.35735 | 33320 ft | 511 kts | 90° |
| 2026-04-15 10:06 | 41.84624 | 39.45271 | 33319 ft | 512 kts | 90° |
| 2026-04-15 10:06 | 41.84291 | 39.54815 | 33319 ft | 512 kts | 90° |
| 2026-04-15 10:07 | 41.83965 | 39.64366 | 33319 ft | 513 kts | 90° |
| 2026-04-15 10:07 | 41.83633 | 39.73926 | 33322 ft | 514 kts | 90° |
| 2026-04-15 10:08 | 41.83292 | 39.83501 | 33324 ft | 515 kts | 90° |
| 2026-04-15 10:08 | 41.82942 | 39.93091 | 33323 ft | 515 kts | 90° |
| 2026-04-15 10:09 | 41.82583 | 40.02676 | 33310 ft | 515 kts | 90° |
| 2026-04-15 10:09 | 41.82217 | 40.12262 | 33306 ft | 515 kts | 90° |
| 2026-04-15 10:10 | 41.81826 | 40.21850 | 33310 ft | 515 kts | 90° |
| 2026-04-15 10:10 | 41.81413 | 40.31440 | 33313 ft | 516 kts | 90° |
| 2026-04-15 10:11 | 41.80995 | 40.41035 | 33308 ft | 516 kts | 90° |
| 2026-04-15 10:11 | 41.80574 | 40.50630 | 33311 ft | 515 kts | 90° |
| 2026-04-15 10:12 | 41.80145 | 40.60217 | 33306 ft | 515 kts | 90° |
| 2026-04-15 10:12 | 41.79707 | 40.69739 | 33305 ft | 515 kts | 90° |
| 2026-04-15 10:13 | 41.79235 | 40.79328 | 33307 ft | 516 kts | 90° |
| 2026-04-15 10:13 | 41.78755 | 40.88919 | 33310 ft | 517 kts | 90° |
| 2026-04-15 10:14 | 41.78348 | 40.96966 | 33317 ft | 517 kts | 90° |
| 2026-04-15 10:14 | 41.77859 | 41.06579 | 33309 ft | 517 kts | 90° |
| 2026-04-15 10:15 | 41.77359 | 41.16200 | 33311 ft | 518 kts | 90° |
| 2026-04-15 10:15 | 41.76850 | 41.25824 | 33311 ft | 518 kts | 90° |
| 2026-04-15 10:16 | 41.76337 | 41.35391 | 33315 ft | 518 kts | 90° |
| 2026-04-15 10:16 | 41.75813 | 41.45027 | 33328 ft | 520 kts | 90° |
| 2026-04-15 10:17 | 41.75280 | 41.54680 | 33320 ft | 520 kts | 90° |
| 2026-04-15 10:17 | 41.74737 | 41.64351 | 33321 ft | 521 kts | 90° |
| 2026-04-15 10:18 | 41.74185 | 41.74036 | 33312 ft | 522 kts | 90° |
| 2026-04-15 10:18 | 41.73623 | 41.83729 | 33316 ft | 523 kts | 90° |
| 2026-04-15 10:19 | 41.73052 | 41.93450 | 33295 ft | 524 kts | 90° |
| 2026-04-15 10:19 | 41.72475 | 42.03171 | 33296 ft | 524 kts | 90° |
| 2026-04-15 10:20 | 41.71888 | 42.12903 | 33275 ft | 525 kts | 90° |
| 2026-04-15 10:20 | 41.71302 | 42.22606 | 33295 ft | 522 kts | 90° |
| 2026-04-15 10:21 | 41.70715 | 42.32307 | 33262 ft | 523 kts | 90° |
| 2026-04-15 10:21 | 41.70123 | 42.41952 | 33275 ft | 524 kts | 90° |
| 2026-04-15 10:22 | 41.69514 | 42.51663 | 33268 ft | 524 kts | 90° |
| 2026-04-15 10:22 | 41.68897 | 42.61379 | 33281 ft | 525 kts | 90° |
| 2026-04-15 10:23 | 41.68270 | 42.71124 | 33255 ft | 525 kts | 90° |
| 2026-04-15 10:23 | 41.67638 | 42.80862 | 33244 ft | 526 kts | 91° |
| 2026-04-15 10:24 | 41.66992 | 42.90623 | 33235 ft | 527 kts | 91° |
| 2026-04-15 10:24 | 41.66316 | 43.00376 | 33232 ft | 527 kts | 91° |
| 2026-04-15 10:25 | 41.65630 | 43.10131 | 33240 ft | 527 kts | 91° |
| 2026-04-15 10:25 | 41.64942 | 43.19896 | 33260 ft | 528 kts | 91° |
| 2026-04-15 10:26 | 41.64248 | 43.29656 | 33255 ft | 527 kts | 91° |
| 2026-04-15 10:26 | 41.63547 | 43.39397 | 33251 ft | 526 kts | 91° |
| 2026-04-15 10:27 | 41.62834 | 43.49110 | 33243 ft | 524 kts | 91° |
| 2026-04-15 10:27 | 41.62120 | 43.58785 | 33238 ft | 523 kts | 91° |
| 2026-04-15 10:28 | 41.61404 | 43.68449 | 33258 ft | 523 kts | 92° |
| 2026-04-15 10:28 | 41.60682 | 43.78108 | 33256 ft | 522 kts | 92° |
| 2026-04-15 10:29 | 41.59950 | 43.87758 | 33240 ft | 521 kts | 92° |
| 2026-04-15 10:29 | 41.59213 | 43.97369 | 33226 ft | 519 kts | 92° |
| 2026-04-15 10:30 | 41.58470 | 44.06934 | 33202 ft | 517 kts | 93° |
| 2026-04-15 10:30 | 41.57725 | 44.16462 | 33207 ft | 515 kts | 93° |
| 2026-04-15 10:31 | 41.56574 | 44.25906 | 33201 ft | 518 kts | 103° |
| 2026-04-15 10:31 | 41.54339 | 44.35058 | 33205 ft | 519 kts | 107° |
| 2026-04-15 10:32 | 41.52005 | 44.44187 | 33196 ft | 520 kts | 107° |
| 2026-04-15 10:32 | 41.49726 | 44.53277 | 33205 ft | 520 kts | 106° |
| 2026-04-15 10:33 | 41.47431 | 44.62512 | 33205 ft | 522 kts | 106° |
| 2026-04-15 10:33 | 41.45155 | 44.71631 | 33208 ft | 522 kts | 107° |
| 2026-04-15 10:34 | 41.42850 | 44.80810 | 33206 ft | 523 kts | 107° |
| 2026-04-15 10:34 | 41.40539 | 44.89993 | 33222 ft | 522 kts | 107° |
| 2026-04-15 10:35 | 41.38218 | 44.99163 | 33207 ft | 522 kts | 107° |
| 2026-04-15 10:35 | 41.35896 | 45.08313 | 33212 ft | 522 kts | 107° |
| 2026-04-15 10:36 | 41.33563 | 45.17445 | 33209 ft | 521 kts | 107° |
| 2026-04-15 10:36 | 41.31222 | 45.26565 | 33208 ft | 521 kts | 107° |
| 2026-04-15 10:37 | 41.28881 | 45.35673 | 33219 ft | 520 kts | 107° |
| 2026-04-15 10:37 | 41.26534 | 45.44757 | 33201 ft | 518 kts | 107° |
| 2026-04-15 10:38 | 41.24197 | 45.53779 | 33201 ft | 515 kts | 107° |
| 2026-04-15 10:38 | 41.21866 | 45.62737 | 33199 ft | 512 kts | 107° |
| 2026-04-15 10:39 | 41.19529 | 45.71652 | 33206 ft | 511 kts | 108° |
| 2026-04-15 10:39 | 41.17164 | 45.80550 | 33208 ft | 511 kts | 108° |
| 2026-04-15 10:40 | 41.14793 | 45.89454 | 33206 ft | 512 kts | 108° |
| 2026-04-15 10:40 | 41.12413 | 45.98367 | 33201 ft | 514 kts | 108° |
| 2026-04-15 10:41 | 41.10036 | 46.07253 | 33207 ft | 515 kts | 108° |
| 2026-04-15 10:41 | 41.07613 | 46.16273 | 33208 ft | 517 kts | 108° |
| 2026-04-15 10:42 | 41.05208 | 46.25196 | 33207 ft | 518 kts | 108° |
| 2026-04-15 10:42 | 41.02788 | 46.34181 | 33206 ft | 518 kts | 107° |
| 2026-04-15 10:43 | 41.00392 | 46.43177 | 33206 ft | 517 kts | 107° |
| 2026-04-15 10:43 | 40.98002 | 46.52129 | 33205 ft | 515 kts | 107° |
| 2026-04-15 10:44 | 40.95608 | 46.61047 | 33213 ft | 513 kts | 107° |
| 2026-04-15 10:44 | 40.93220 | 46.69920 | 33217 ft | 512 kts | 107° |
| 2026-04-15 10:45 | 40.90828 | 46.78774 | 33229 ft | 511 kts | 108° |
| 2026-04-15 10:45 | 40.88425 | 46.87609 | 33228 ft | 511 kts | 108° |
| 2026-04-15 10:46 | 40.85996 | 46.96433 | 33239 ft | 511 kts | 108° |
| 2026-04-15 10:46 | 40.83565 | 47.05249 | 33240 ft | 511 kts | 108° |
| 2026-04-15 10:47 | 40.81128 | 47.14075 | 33244 ft | 512 kts | 108° |
| 2026-04-15 10:47 | 40.78679 | 47.22903 | 33232 ft | 512 kts | 108° |
| 2026-04-15 10:48 | 40.76223 | 47.31729 | 33255 ft | 511 kts | 108° |
| 2026-04-15 10:48 | 40.73776 | 47.40496 | 33230 ft | 507 kts | 108° |
| 2026-04-15 10:49 | 40.71331 | 47.49184 | 33214 ft | 503 kts | 109° |
| 2026-04-15 10:49 | 40.68897 | 47.57788 | 33212 ft | 500 kts | 109° |
| 2026-04-15 10:50 | 40.66469 | 47.66352 | 33207 ft | 499 kts | 109° |
| 2026-04-15 10:50 | 40.64042 | 47.74899 | 33206 ft | 499 kts | 109° |
| 2026-04-15 10:51 | 40.61602 | 47.83466 | 33212 ft | 500 kts | 109° |
| 2026-04-15 10:51 | 40.59348 | 47.92128 | 33202 ft | 500 kts | 101° |
| 2026-04-15 10:52 | 40.58414 | 48.01154 | 33214 ft | 497 kts | 89° |
| 2026-04-15 10:52 | 40.58683 | 48.10159 | 33227 ft | 494 kts | 85° |
| 2026-04-15 10:53 | 40.58971 | 48.19086 | 33200 ft | 484 kts | 86° |
| 2026-04-15 10:53 | 40.59207 | 48.27933 | 33206 ft | 484 kts | 86° |
| 2026-04-15 10:54 | 40.59437 | 48.36801 | 33198 ft | 485 kts | 86° |
| 2026-04-15 10:54 | 40.59665 | 48.45690 | 33213 ft | 487 kts | 86° |
| 2026-04-15 10:55 | 40.59885 | 48.54601 | 33195 ft | 487 kts | 86° |
| 2026-04-15 10:55 | 40.60100 | 48.63490 | 33198 ft | 485 kts | 86° |
| 2026-04-15 10:56 | 40.60307 | 48.72332 | 33186 ft | 482 kts | 86° |
| 2026-04-15 10:56 | 40.60505 | 48.81127 | 33197 ft | 480 kts | 86° |
| 2026-04-15 10:57 | 40.60696 | 48.89879 | 33194 ft | 478 kts | 86° |
| 2026-04-15 10:57 | 40.60976 | 49.03013 | 33198 ft | 478 kts | 86° |
| 2026-04-15 10:58 | 40.61151 | 49.11745 | 33192 ft | 476 kts | 86° |
| 2026-04-15 10:58 | 40.61324 | 49.20460 | 33202 ft | 476 kts | 86° |
| 2026-04-15 10:59 | 40.61749 | 49.29137 | 33203 ft | 475 kts | 83° |
| 2026-04-15 10:59 | 40.62319 | 49.37811 | 33213 ft | 476 kts | 83° |
| 2026-04-15 11:00 | 40.62763 | 49.45026 | 33211 ft | 476 kts | 83° |
| 2026-04-15 11:00 | 40.63263 | 49.53720 | 33212 ft | 476 kts | 84° |
| 2026-04-15 11:01 | 40.63743 | 49.62426 | 33217 ft | 477 kts | 84° |
| 2026-04-15 11:01 | 40.64210 | 49.71133 | 33226 ft | 477 kts | 84° |
| 2026-04-15 11:02 | 40.64675 | 49.79835 | 33229 ft | 477 kts | 84° |
| 2026-04-15 11:02 | 40.65141 | 49.88547 | 33224 ft | 477 kts | 84° |
| 2026-04-15 11:03 | 40.65595 | 49.97248 | 33228 ft | 476 kts | 84° |
| 2026-04-15 11:03 | 40.66038 | 50.05943 | 33234 ft | 476 kts | 84° |
| 2026-04-15 11:04 | 40.66480 | 50.14626 | 33236 ft | 475 kts | 84° |
| 2026-04-15 11:04 | 40.66918 | 50.23302 | 33233 ft | 476 kts | 84° |
| 2026-04-15 11:05 | 40.67342 | 50.32027 | 33231 ft | 478 kts | 84° |
| 2026-04-15 11:05 | 40.67765 | 50.40786 | 33222 ft | 479 kts | 84° |
| 2026-04-15 11:06 | 40.68186 | 50.49564 | 33215 ft | 481 kts | 84° |
| 2026-04-15 11:06 | 40.68598 | 50.58360 | 33211 ft | 481 kts | 84° |
| 2026-04-15 11:07 | 40.68999 | 50.67150 | 33208 ft | 480 kts | 84° |
| 2026-04-15 11:07 | 40.69398 | 50.75919 | 33221 ft | 479 kts | 84° |
| 2026-04-15 11:08 | 40.69794 | 50.84692 | 33211 ft | 479 kts | 84° |
| 2026-04-15 11:08 | 40.70177 | 50.93456 | 33212 ft | 479 kts | 85° |
| 2026-04-15 11:09 | 40.70559 | 51.02215 | 33216 ft | 479 kts | 85° |
| 2026-04-15 11:09 | 40.70930 | 51.10982 | 33214 ft | 479 kts | 85° |
| 2026-04-15 11:10 | 40.71293 | 51.19759 | 33211 ft | 479 kts | 85° |
| 2026-04-15 11:10 | 40.71654 | 51.28532 | 33206 ft | 479 kts | 85° |
| 2026-04-15 11:11 | 40.72007 | 51.37317 | 33206 ft | 481 kts | 85° |
| 2026-04-15 11:11 | 40.72352 | 51.46068 | 33202 ft | 482 kts | 85° |
| 2026-04-15 11:12 | 40.73201 | 51.54785 | 33213 ft | 478 kts | 75° |
| 2026-04-15 11:12 | 40.74674 | 51.63342 | 33212 ft | 478 kts | 75° |
| 2026-04-15 11:13 | 40.76124 | 51.71912 | 33194 ft | 479 kts | 75° |
| 2026-04-15 11:13 | 40.77535 | 51.80504 | 33209 ft | 479 kts | 76° |
| 2026-04-15 11:14 | 40.78930 | 51.89097 | 33196 ft | 478 kts | 76° |
| 2026-04-15 11:14 | 40.80318 | 51.97681 | 33183 ft | 478 kts | 76° |
| 2026-04-15 11:15 | 40.81698 | 52.06267 | 33181 ft | 478 kts | 76° |
| 2026-04-15 11:15 | 40.83076 | 52.14853 | 33192 ft | 478 kts | 77° |
| 2026-04-15 11:16 | 40.84448 | 52.23459 | 33189 ft | 479 kts | 76° |
| 2026-04-15 11:16 | 40.85811 | 52.32073 | 33190 ft | 479 kts | 77° |
| 2026-04-15 11:17 | 40.87172 | 52.40698 | 33180 ft | 479 kts | 75° |
| 2026-04-15 11:17 | 40.88527 | 52.49328 | 33175 ft | 479 kts | 76° |
| 2026-04-15 11:18 | 40.89872 | 52.57950 | 33177 ft | 479 kts | 75° |
| 2026-04-15 11:18 | 40.90657 | 52.66708 | 33196 ft | 481 kts | 85° |
| 2026-04-15 11:19 | 40.90986 | 52.75541 | 33179 ft | 481 kts | 85° |
| 2026-04-15 11:19 | 40.91335 | 52.84368 | 33166 ft | 481 kts | 85° |
| 2026-04-15 11:20 | 40.91707 | 52.93199 | 33174 ft | 481 kts | 83° |
| 2026-04-15 11:20 | 40.92085 | 53.02051 | 33171 ft | 483 kts | 85° |
| 2026-04-15 11:21 | 40.92448 | 53.10914 | 33160 ft | 484 kts | 85° |
| 2026-04-15 11:21 | 40.92798 | 53.19808 | 33158 ft | 484 kts | 86° |
| 2026-04-15 11:22 | 40.93130 | 53.28698 | 33158 ft | 484 kts | 84° |
| 2026-04-15 11:22 | 40.93454 | 53.37593 | 33151 ft | 484 kts | 85° |
| 2026-04-15 11:23 | 40.93774 | 53.46478 | 33156 ft | 484 kts | 85° |
| 2026-04-15 11:23 | 40.94090 | 53.55358 | 33133 ft | 483 kts | 86° |
| 2026-04-15 11:24 | 40.94397 | 53.64239 | 33147 ft | 483 kts | 84° |
| 2026-04-15 11:24 | 40.94701 | 53.73112 | 33143 ft | 483 kts | 85° |
| 2026-04-15 11:25 | 40.94995 | 53.81984 | 33136 ft | 483 kts | 84° |
| 2026-04-15 11:25 | 40.95283 | 53.90868 | 33144 ft | 484 kts | 86° |
| 2026-04-15 11:26 | 40.95566 | 53.99773 | 33135 ft | 485 kts | 85° |
| 2026-04-15 11:26 | 40.95843 | 54.08707 | 33128 ft | 486 kts | 86° |
| 2026-04-15 11:27 | 40.96109 | 54.17650 | 33121 ft | 487 kts | 85° |
| 2026-04-15 11:27 | 40.96371 | 54.26622 | 33128 ft | 488 kts | 87° |
| 2026-04-15 11:28 | 40.96622 | 54.35542 | 33128 ft | 489 kts | 85° |
| 2026-04-15 11:28 | 40.96875 | 54.44528 | 33123 ft | 489 kts | 86° |
| 2026-04-15 11:29 | 40.97120 | 54.53509 | 33126 ft | 488 kts | 85° |
| 2026-04-15 11:29 | 40.97353 | 54.62492 | 33132 ft | 488 kts | 86° |
| 2026-04-15 11:30 | 40.97582 | 54.71478 | 33129 ft | 489 kts | 86° |
| 2026-04-15 11:30 | 40.97804 | 54.80503 | 33117 ft | 493 kts | 87° |
| 2026-04-15 11:31 | 40.98023 | 54.89593 | 33124 ft | 496 kts | 87° |
| 2026-04-15 11:31 | 40.98226 | 54.98738 | 33112 ft | 498 kts | 86° |
| 2026-04-15 11:32 | 40.98421 | 55.07863 | 33105 ft | 496 kts | 86° |
| 2026-04-15 11:32 | 40.98613 | 55.16978 | 33104 ft | 495 kts | 88° |
| 2026-04-15 11:33 | 40.98796 | 55.26083 | 33102 ft | 495 kts | 86° |
| 2026-04-15 11:33 | 40.98971 | 55.35206 | 33101 ft | 496 kts | 87° |
| 2026-04-15 11:34 | 40.99140 | 55.44364 | 33103 ft | 499 kts | 88° |
| 2026-04-15 11:34 | 40.99304 | 55.53558 | 33103 ft | 501 kts | 87° |
| 2026-04-15 11:35 | 40.99461 | 55.62745 | 33081 ft | 504 kts | 87° |
| 2026-04-15 11:35 | 40.99609 | 55.72002 | 33081 ft | 503 kts | 87° |
| 2026-04-15 11:36 | 40.99753 | 55.81243 | 33085 ft | 500 kts | 87° |
| 2026-04-15 11:36 | 40.99900 | 55.90485 | 33086 ft | 504 kts | 88° |
| 2026-04-15 11:37 | 41.00049 | 55.99806 | 33080 ft | 507 kts | 88° |
| 2026-04-15 11:37 | 41.00185 | 56.09171 | 33086 ft | 508 kts | 88° |
| 2026-04-15 11:38 | 41.00312 | 56.18480 | 33083 ft | 505 kts | 88° |
| 2026-04-15 11:38 | 41.00434 | 56.27801 | 33079 ft | 509 kts | 89° |
| 2026-04-15 11:39 | 41.00549 | 56.37179 | 33069 ft | 511 kts | 88° |
| 2026-04-15 11:39 | 41.00656 | 56.46577 | 33061 ft | 511 kts | 89° |
| 2026-04-15 11:40 | 41.01218 | 56.55916 | 33064 ft | 507 kts | 80° |
| 2026-04-15 11:40 | 41.02373 | 56.65134 | 33056 ft | 509 kts | 80° |
| 2026-04-15 11:41 | 41.03526 | 56.74412 | 33064 ft | 512 kts | 81° |
| 2026-04-15 11:41 | 41.04642 | 56.83736 | 33067 ft | 512 kts | 81° |
| 2026-04-15 11:42 | 41.05735 | 56.93064 | 33063 ft | 512 kts | 81° |
| 2026-04-15 11:42 | 41.06815 | 57.02382 | 33065 ft | 511 kts | 82° |
| 2026-04-15 11:43 | 41.07890 | 57.11682 | 33065 ft | 511 kts | 81° |
| 2026-04-15 11:43 | 41.08960 | 57.20996 | 33063 ft | 511 kts | 82° |
| 2026-04-15 11:44 | 41.10022 | 57.30314 | 33058 ft | 512 kts | 82° |
| 2026-04-15 11:44 | 41.11073 | 57.39592 | 33051 ft | 513 kts | 82° |
| 2026-04-15 11:45 | 41.12123 | 57.48942 | 33054 ft | 513 kts | 82° |
| 2026-04-15 11:45 | 41.13167 | 57.58302 | 33050 ft | 513 kts | 82° |
| 2026-04-15 11:46 | 41.14204 | 57.67677 | 33046 ft | 514 kts | 83° |
| 2026-04-15 11:46 | 41.15232 | 57.77070 | 33052 ft | 515 kts | 83° |
| 2026-04-15 11:47 | 41.16093 | 57.84953 | 33055 ft | 516 kts | 83° |
| 2026-04-15 11:47 | 41.17106 | 57.94327 | 33047 ft | 517 kts | 83° |
| 2026-04-15 11:48 | 41.18122 | 58.03783 | 33047 ft | 517 kts | 83° |
| 2026-04-15 11:48 | 41.19130 | 58.13243 | 33044 ft | 517 kts | 83° |
| 2026-04-15 11:49 | 41.20122 | 58.22700 | 33054 ft | 517 kts | 83° |
| 2026-04-15 11:49 | 41.21110 | 58.32151 | 33038 ft | 517 kts | 84° |
| 2026-04-15 11:50 | 41.22090 | 58.41609 | 33049 ft | 517 kts | 84° |
| 2026-04-15 11:50 | 41.23062 | 58.51071 | 33042 ft | 517 kts | 84° |
| 2026-04-15 11:51 | 41.24029 | 58.60556 | 33029 ft | 519 kts | 84° |
| 2026-04-15 11:51 | 41.24992 | 58.70083 | 33038 ft | 522 kts | 85° |
| 2026-04-15 11:52 | 41.25954 | 58.79685 | 33049 ft | 526 kts | 85° |
| 2026-04-15 11:52 | 41.26916 | 58.89351 | 33051 ft | 529 kts | 85° |
| 2026-04-15 11:53 | 41.27873 | 58.99083 | 33043 ft | 531 kts | 85° |
| 2026-04-15 11:53 | 41.28825 | 59.08833 | 33034 ft | 531 kts | 85° |
| 2026-04-15 11:54 | 41.29768 | 59.18566 | 33033 ft | 531 kts | 85° |
| 2026-04-15 11:54 | 41.30700 | 59.28293 | 33035 ft | 529 kts | 85° |
| 2026-04-15 11:55 | 41.31622 | 59.37986 | 33023 ft | 528 kts | 86° |
| 2026-04-15 11:55 | 41.32533 | 59.47673 | 33037 ft | 527 kts | 86° |
| 2026-04-15 11:56 | 41.33437 | 59.57358 | 33016 ft | 527 kts | 86° |
| 2026-04-15 11:56 | 41.34208 | 59.67050 | 33024 ft | 526 kts | 91° |
| 2026-04-15 11:57 | 41.33669 | 59.81514 | 33029 ft | 522 kts | 99° |
| 2026-04-15 11:58 | 41.33171 | 59.91170 | 33042 ft | 524 kts | 98° |
| 2026-04-15 11:58 | 41.32720 | 60.00859 | 33036 ft | 525 kts | 98° |
| 2026-04-15 11:59 | 41.32260 | 60.10554 | 33036 ft | 525 kts | 98° |
| 2026-04-15 11:59 | 41.31800 | 60.20240 | 33030 ft | 523 kts | 99° |
| 2026-04-15 12:00 | 41.31333 | 60.29880 | 33034 ft | 522 kts | 99° |
| 2026-04-15 12:00 | 41.30861 | 60.39496 | 33053 ft | 520 kts | 99° |
| 2026-04-15 12:01 | 41.30931 | 60.49093 | 33053 ft | 525 kts | 90° |
| 2026-04-15 12:01 | 41.31508 | 60.58773 | 33044 ft | 524 kts | 90° |
| 2026-04-15 12:02 | 41.32066 | 60.68438 | 33039 ft | 523 kts | 91° |
| 2026-04-15 12:02 | 41.32576 | 60.78090 | 33036 ft | 523 kts | 91° |
| 2026-04-15 12:03 | 41.33064 | 60.87743 | 33048 ft | 523 kts | 91° |
| 2026-04-15 12:03 | 41.33543 | 60.97400 | 33043 ft | 523 kts | 91° |
| 2026-04-15 12:04 | 41.34018 | 61.07059 | 33036 ft | 523 kts | 92° |
| 2026-04-15 12:04 | 41.34486 | 61.16717 | 33041 ft | 523 kts | 92° |
| 2026-04-15 12:05 | 41.34948 | 61.26382 | 33015 ft | 523 kts | 92° |
| 2026-04-15 12:05 | 41.35399 | 61.36045 | 33039 ft | 523 kts | 92° |
| 2026-04-15 12:06 | 41.35842 | 61.45713 | 33039 ft | 524 kts | 92° |
| 2026-04-15 12:06 | 41.36273 | 61.55392 | 33041 ft | 524 kts | 92° |
| 2026-04-15 12:07 | 41.36697 | 61.65078 | 33042 ft | 524 kts | 92° |
| 2026-04-15 12:07 | 41.37115 | 61.74777 | 33011 ft | 524 kts | 93° |
| 2026-04-15 12:08 | 41.37524 | 61.84460 | 33036 ft | 524 kts | 93° |
| 2026-04-15 12:08 | 41.37924 | 61.94160 | 33017 ft | 525 kts | 93° |
| 2026-04-15 12:09 | 41.38316 | 62.03861 | 33043 ft | 525 kts | 93° |
| 2026-04-15 12:09 | 41.38702 | 62.13570 | 33042 ft | 525 kts | 93° |
| 2026-04-15 12:10 | 41.39079 | 62.23274 | 33027 ft | 525 kts | 94° |
| 2026-04-15 12:10 | 41.39446 | 62.32960 | 33036 ft | 523 kts | 94° |
| 2026-04-15 12:11 | 41.39806 | 62.42616 | 33041 ft | 522 kts | 94° |
| 2026-04-15 12:11 | 41.40159 | 62.52260 | 33044 ft | 521 kts | 94° |
| 2026-04-15 12:12 | 41.40535 | 62.61867 | 33029 ft | 519 kts | 93° |
| 2026-04-15 12:12 | 41.40916 | 62.71466 | 33043 ft | 519 kts | 93° |
| 2026-04-15 12:13 | 41.41284 | 62.81003 | 33055 ft | 519 kts | 93° |
| 2026-04-15 12:13 | 41.41648 | 62.90678 | 33047 ft | 520 kts | 93° |
| 2026-04-15 12:14 | 41.41999 | 63.00296 | 33047 ft | 520 kts | 93° |
| 2026-04-15 12:14 | 41.42338 | 63.09845 | 33052 ft | 519 kts | 93° |
| 2026-04-15 12:15 | 41.42674 | 63.19452 | 33054 ft | 518 kts | 93° |
| 2026-04-15 12:15 | 41.43002 | 63.29036 | 33048 ft | 518 kts | 93° |
| 2026-04-15 12:16 | 41.43321 | 63.38613 | 33062 ft | 517 kts | 93° |
| 2026-04-15 12:16 | 41.43629 | 63.48180 | 33021 ft | 517 kts | 93° |
| 2026-04-15 12:17 | 41.43934 | 63.57742 | 33053 ft | 516 kts | 93° |
| 2026-04-15 12:17 | 41.44228 | 63.67301 | 33059 ft | 516 kts | 93° |
| 2026-04-15 12:18 | 41.44498 | 63.76871 | 33043 ft | 516 kts | 94° |
| 2026-04-15 12:18 | 41.44753 | 63.86435 | 33060 ft | 516 kts | 94° |
| 2026-04-15 12:19 | 41.45004 | 63.95994 | 33069 ft | 516 kts | 94° |
| 2026-04-15 12:19 | 41.45247 | 64.05567 | 33044 ft | 517 kts | 94° |
| 2026-04-15 12:20 | 41.45484 | 64.15133 | 33055 ft | 516 kts | 94° |
| 2026-04-15 12:20 | 41.45712 | 64.24698 | 33066 ft | 516 kts | 94° |
| 2026-04-15 12:21 | 41.45933 | 64.34256 | 33061 ft | 516 kts | 94° |
| 2026-04-15 12:21 | 41.46146 | 64.43810 | 33062 ft | 515 kts | 94° |
| 2026-04-15 12:22 | 41.46347 | 64.53288 | 33059 ft | 515 kts | 94° |
| 2026-04-15 12:22 | 41.46542 | 64.62825 | 33063 ft | 515 kts | 94° |
| 2026-04-15 12:23 | 41.46732 | 64.72373 | 33066 ft | 515 kts | 94° |
| 2026-04-15 12:23 | 41.46912 | 64.81927 | 33060 ft | 516 kts | 94° |
| 2026-04-15 12:24 | 41.47084 | 64.91485 | 33064 ft | 516 kts | 94° |
| 2026-04-15 12:24 | 41.47249 | 65.01042 | 33046 ft | 516 kts | 94° |
| 2026-04-15 12:25 | 41.47408 | 65.10600 | 33063 ft | 515 kts | 94° |
| 2026-04-15 12:25 | 41.47556 | 65.20154 | 33066 ft | 516 kts | 94° |
| 2026-04-15 12:26 | 41.47697 | 65.29722 | 33047 ft | 516 kts | 95° |
| 2026-04-15 12:26 | 41.47830 | 65.39292 | 33055 ft | 517 kts | 95° |
| 2026-04-15 12:27 | 41.47956 | 65.48874 | 33063 ft | 517 kts | 95° |
| 2026-04-15 12:27 | 41.48073 | 65.58475 | 33061 ft | 518 kts | 95° |
| 2026-04-15 12:28 | 41.48184 | 65.68071 | 33059 ft | 517 kts | 95° |
| 2026-04-15 12:28 | 41.48287 | 65.77666 | 33064 ft | 517 kts | 95° |
| 2026-04-15 12:29 | 41.48346 | 65.87248 | 33063 ft | 517 kts | 95° |
| 2026-04-15 12:29 | 41.48357 | 65.96829 | 33047 ft | 516 kts | 95° |
| 2026-04-15 12:30 | 41.48363 | 66.06396 | 33066 ft | 516 kts | 95° |
| 2026-04-15 12:30 | 41.48370 | 66.15968 | 33072 ft | 516 kts | 95° |
| 2026-04-15 12:31 | 41.48371 | 66.25540 | 33032 ft | 516 kts | 95° |
| 2026-04-15 12:31 | 41.48361 | 66.35023 | 33063 ft | 515 kts | 95° |
| 2026-04-15 12:32 | 41.48345 | 66.44560 | 33066 ft | 514 kts | 95° |
| 2026-04-15 12:32 | 41.48324 | 66.54089 | 33069 ft | 513 kts | 95° |
| 2026-04-15 12:33 | 41.47986 | 66.63546 | 33062 ft | 506 kts | 104° |
| 2026-04-15 12:33 | 41.46661 | 66.72653 | 33039 ft | 494 kts | 108° |
| 2026-04-15 12:34 | 41.45531 | 66.80056 | 32857 ft | 480 kts | 108° |
| 2026-04-15 12:34 | 41.44880 | 66.84393 | 32595 ft | 475 kts | 108° |
| 2026-04-15 12:34 | 41.44236 | 66.88705 | 32188 ft | 473 kts | 108° |
| 2026-04-15 12:34 | 41.43595 | 66.93007 | 31721 ft | 473 kts | 108° |
| 2026-04-15 12:35 | 41.42958 | 66.97296 | 31339 ft | 471 kts | 108° |
| 2026-04-15 12:35 | 41.42333 | 67.01507 | 31020 ft | 468 kts | 108° |
| 2026-04-15 12:35 | 41.41695 | 67.05803 | 30698 ft | 465 kts | 108° |
| 2026-04-15 12:35 | 41.41076 | 67.09967 | 30385 ft | 463 kts | 108° |
| 2026-04-15 12:36 | 41.40450 | 67.14158 | 30064 ft | 461 kts | 108° |
| 2026-04-15 12:36 | 41.39824 | 67.18333 | 29675 ft | 459 kts | 108° |
| 2026-04-15 12:36 | 41.39199 | 67.22485 | 29285 ft | 456 kts | 108° |
| 2026-04-15 12:36 | 41.38577 | 67.26616 | 28968 ft | 453 kts | 108° |
| 2026-04-15 12:37 | 41.37956 | 67.30717 | 28661 ft | 450 kts | 108° |
| 2026-04-15 12:37 | 41.37339 | 67.34790 | 28327 ft | 448 kts | 108° |
| 2026-04-15 12:37 | 41.36726 | 67.38832 | 27977 ft | 446 kts | 108° |
| 2026-04-15 12:37 | 41.36110 | 67.42870 | 27636 ft | 445 kts | 108° |
| 2026-04-15 12:38 | 41.35495 | 67.46893 | 27306 ft | 442 kts | 108° |
| 2026-04-15 12:38 | 41.34881 | 67.50897 | 26976 ft | 441 kts | 108° |
| 2026-04-15 12:38 | 41.34270 | 67.54883 | 26615 ft | 439 kts | 108° |
| 2026-04-15 12:38 | 41.33660 | 67.58854 | 26323 ft | 437 kts | 108° |
| 2026-04-15 12:39 | 41.33051 | 67.62801 | 26040 ft | 434 kts | 108° |
| 2026-04-15 12:39 | 41.32444 | 67.66722 | 25759 ft | 432 kts | 108° |
| 2026-04-15 12:39 | 41.31838 | 67.70632 | 25474 ft | 430 kts | 108° |
| 2026-04-15 12:39 | 41.31234 | 67.74526 | 25202 ft | 429 kts | 108° |
| 2026-04-15 12:40 | 41.30632 | 67.78397 | 24906 ft | 427 kts | 108° |
| 2026-04-15 12:40 | 41.30031 | 67.82250 | 24628 ft | 425 kts | 108° |
| 2026-04-15 12:40 | 41.29432 | 67.86092 | 24364 ft | 423 kts | 108° |
| 2026-04-15 12:40 | 41.28832 | 67.89916 | 24106 ft | 422 kts | 108° |
| 2026-04-15 12:41 | 41.28336 | 67.93755 | 23797 ft | 424 kts | 98° |
| 2026-04-15 12:41 | 41.28550 | 67.97689 | 23268 ft | 431 kts | 86° |
| 2026-04-15 12:41 | 41.29031 | 68.01627 | 22787 ft | 432 kts | 85° |
| 2026-04-15 12:41 | 41.29513 | 68.05553 | 22440 ft | 429 kts | 85° |
| 2026-04-15 12:42 | 41.29975 | 68.09453 | 22147 ft | 425 kts | 86° |
| 2026-04-15 12:42 | 41.30414 | 68.13337 | 21823 ft | 423 kts | 86° |
| 2026-04-15 12:42 | 41.30834 | 68.17201 | 21481 ft | 421 kts | 86° |
| 2026-04-15 12:42 | 41.31242 | 68.21053 | 21129 ft | 420 kts | 86° |
| 2026-04-15 12:43 | 41.31643 | 68.24888 | 20808 ft | 418 kts | 86° |
| 2026-04-15 12:43 | 41.32041 | 68.28706 | 20503 ft | 416 kts | 86° |
| 2026-04-15 12:43 | 41.32436 | 68.32510 | 20188 ft | 415 kts | 86° |
| 2026-04-15 12:43 | 41.32827 | 68.36304 | 19878 ft | 412 kts | 86° |
| 2026-04-15 12:44 | 41.33215 | 68.40071 | 19519 ft | 410 kts | 86° |
| 2026-04-15 12:44 | 41.33599 | 68.43814 | 19108 ft | 407 kts | 86° |
| 2026-04-15 12:44 | 41.33980 | 68.47529 | 18722 ft | 405 kts | 86° |
| 2026-04-15 12:44 | 41.34354 | 68.51179 | 18313 ft | 403 kts | 86° |
| 2026-04-15 12:45 | 41.34729 | 68.54863 | 17850 ft | 401 kts | 86° |
| 2026-04-15 12:45 | 41.35097 | 68.58522 | 17401 ft | 398 kts | 87° |
| 2026-04-15 12:45 | 41.35466 | 68.62167 | 16938 ft | 396 kts | 86° |
| 2026-04-15 12:45 | 41.35838 | 68.65806 | 16508 ft | 396 kts | 87° |
| 2026-04-15 12:46 | 41.36202 | 68.69453 | 16089 ft | 398 kts | 87° |
| 2026-04-15 12:46 | 41.36547 | 68.73100 | 15671 ft | 394 kts | 92° |
| 2026-04-15 12:46 | 41.36251 | 68.76647 | 15254 ft | 380 kts | 115° |
| 2026-04-15 12:46 | 41.35092 | 68.79707 | 14864 ft | 365 kts | 132° |
| 2026-04-15 12:47 | 41.33436 | 68.82212 | 14460 ft | 357 kts | 146° |
| 2026-04-15 12:47 | 41.31437 | 68.84104 | 14091 ft | 351 kts | 154° |
| 2026-04-15 12:47 | 41.29364 | 68.85853 | 13647 ft | 355 kts | 153° |
| 2026-04-15 12:47 | 41.27471 | 68.87983 | 13199 ft | 363 kts | 137° |
| 2026-04-15 12:48 | 41.25871 | 68.90594 | 12798 ft | 365 kts | 134° |
| 2026-04-15 12:48 | 41.24274 | 68.93230 | 12391 ft | 367 kts | 135° |
| 2026-04-15 12:48 | 41.22641 | 68.95856 | 11984 ft | 366 kts | 135° |
| 2026-04-15 12:48 | 41.21015 | 68.98464 | 11591 ft | 368 kts | 134° |
| 2026-04-15 12:49 | 41.19379 | 69.01075 | 11188 ft | 368 kts | 134° |
| 2026-04-15 12:49 | 41.17735 | 69.03681 | 10777 ft | 368 kts | 134° |
| 2026-04-15 12:49 | 41.16101 | 69.06237 | 10552 ft | 359 kts | 134° |
| 2026-04-15 12:49 | 41.14624 | 69.08839 | 10357 ft | 351 kts | 120° |
| 2026-04-15 12:50 | 41.13913 | 69.11937 | 10253 ft | 350 kts | 101° |
| 2026-04-15 12:50 | 41.13996 | 69.15095 | 10080 ft | 338 kts | 83° |
| 2026-04-15 12:50 | 41.14405 | 69.18137 | 9895 ft | 335 kts | 84° |
| 2026-04-15 12:50 | 41.14757 | 69.21152 | 9599 ft | 324 kts | 84° |
| 2026-04-15 12:51 | 41.15085 | 69.24087 | 9324 ft | 313 kts | 84° |
| 2026-04-15 12:51 | 41.15392 | 69.26864 | 8946 ft | 296 kts | 84° |
| 2026-04-15 12:51 | 41.15698 | 69.29538 | 8452 ft | 288 kts | 83° |
| 2026-04-15 12:51 | 41.15996 | 69.32133 | 8107 ft | 283 kts | 83° |
| 2026-04-15 12:52 | 41.16289 | 69.34725 | 7773 ft | 284 kts | 83° |
| 2026-04-15 12:52 | 41.16573 | 69.37267 | 7415 ft | 270 kts | 83° |
| 2026-04-15 12:52 | 41.16836 | 69.39640 | 7090 ft | 249 kts | 83° |
| 2026-04-15 12:52 | 41.17071 | 69.41829 | 7011 ft | 228 kts | 83° |
| 2026-04-15 12:53 | 41.17284 | 69.43928 | 6775 ft | 237 kts | 82° |
| 2026-04-15 12:53 | 41.17535 | 69.46098 | 6503 ft | 239 kts | 82° |
| 2026-04-15 12:53 | 41.17784 | 69.48231 | 6203 ft | 236 kts | 82° |
| 2026-04-15 12:53 | 41.18110 | 69.50334 | 5908 ft | 231 kts | 70° |
| 2026-04-15 12:54 | 41.18926 | 69.52087 | 5620 ft | 222 kts | 36° |
| 2026-04-15 12:54 | 41.20285 | 69.52784 | 5435 ft | 207 kts | 2° |
| 2026-04-15 12:54 | 41.21786 | 69.52750 | 5208 ft | 222 kts | 353° |
| 2026-04-15 12:54 | 41.23315 | 69.52502 | 4965 ft | 218 kts | 350° |
| 2026-04-15 12:55 | 41.24772 | 69.52242 | 4835 ft | 204 kts | 349° |
| 2026-04-15 12:55 | 41.26113 | 69.51912 | 4656 ft | 190 kts | 335° |
| 2026-04-15 12:55 | 41.27146 | 69.50892 | 4491 ft | 184 kts | 309° |
| 2026-04-15 12:55 | 41.27975 | 69.49607 | 4276 ft | 184 kts | 313° |
| 2026-04-15 12:56 | 41.28650 | 69.48194 | 4008 ft | 182 kts | 280° |
| 2026-04-15 12:56 | 41.28455 | 69.46567 | 3857 ft | 183 kts | 244° |
| 2026-04-15 12:56 | 41.27941 | 69.45014 | 3620 ft | 186 kts | 257° |
| 2026-04-15 12:56 | 41.27646 | 69.43365 | 3398 ft | 181 kts | 258° |
| 2026-04-15 12:57 | 41.27366 | 69.41780 | 3157 ft | 172 kts | 262° |
| 2026-04-15 12:57 | 41.27182 | 69.40280 | 3027 ft | 160 kts | 264° |
| 2026-04-15 12:57 | 41.27021 | 69.38837 | 2778 ft | 157 kts | 264° |
| 2026-04-15 12:57 | 41.26861 | 69.37424 | 2591 ft | 157 kts | 264° |
| 2026-04-15 12:58 | 41.26701 | 69.35971 | 2366 ft | 159 kts | 263° |
| 2026-04-15 12:58 | 41.26542 | 69.34520 | 2132 ft | 157 kts | 263° |
| 2026-04-15 12:58 | 41.26389 | 69.33067 | 1955 ft | 163 kts | 263° |
| 2026-04-15 12:58 | 41.26219 | 69.31566 | 1733 ft | 167 kts | 264° |
| 2026-04-15 12:59 | 41.25896 | 69.28531 | 1983 ft | 162 kts | 266° |
| 2026-04-15 12:59 | 41.25734 | 69.27007 | 2295 ft | 172 kts | 266° |
| 2026-04-15 12:59 | 41.25556 | 69.25424 | 2813 ft | 174 kts | 265° |
| 2026-04-15 13:00 | 41.25370 | 69.23757 | 3249 ft | 191 kts | 264° |
| 2026-04-15 13:00 | 41.25172 | 69.21981 | 3828 ft | 198 kts | 263° |
| 2026-04-15 13:00 | 41.24966 | 69.20138 | 4002 ft | 213 kts | 263° |
| 2026-04-15 13:00 | 41.24733 | 69.18039 | 4014 ft | 242 kts | 263° |
| 2026-04-15 13:01 | 41.24484 | 69.15800 | 3993 ft | 249 kts | 263° |
| 2026-04-15 13:01 | 41.24226 | 69.13486 | 3997 ft | 255 kts | 261° |
| 2026-04-15 13:01 | 41.23638 | 69.11286 | 3991 ft | 258 kts | 235° |
| 2026-04-15 13:01 | 41.22274 | 69.09717 | 3987 ft | 266 kts | 206° |
| 2026-04-15 13:02 | 41.20479 | 69.09191 | 4014 ft | 269 kts | 182° |
| 2026-04-15 13:02 | 41.18594 | 69.09336 | 4008 ft | 273 kts | 175° |
| 2026-04-15 13:02 | 41.16729 | 69.09740 | 3983 ft | 270 kts | 163° |
| 2026-04-15 13:02 | 41.15159 | 69.11057 | 4003 ft | 272 kts | 131° |
| 2026-04-15 13:03 | 41.14255 | 69.13250 | 4008 ft | 274 kts | 105° |
| 2026-04-15 13:03 | 41.14078 | 69.15756 | 3997 ft | 273 kts | 83° |
| 2026-04-15 13:03 | 41.14349 | 69.18240 | 4004 ft | 272 kts | 80° |
| 2026-04-15 13:03 | 41.14645 | 69.20696 | 3993 ft | 274 kts | 80° |
| 2026-04-15 13:04 | 41.14941 | 69.23160 | 3989 ft | 266 kts | 79° |
| 2026-04-15 13:04 | 41.15225 | 69.25546 | 3986 ft | 257 kts | 80° |
| 2026-04-15 13:04 | 41.15499 | 69.27882 | 4008 ft | 261 kts | 80° |
| 2026-04-15 13:04 | 41.15781 | 69.30301 | 3999 ft | 264 kts | 80° |
| 2026-04-15 13:05 | 41.16048 | 69.32653 | 3976 ft | 251 kts | 81° |
| 2026-04-15 13:05 | 41.16299 | 69.34887 | 3974 ft | 241 kts | 80° |
| 2026-04-15 13:05 | 41.16540 | 69.37076 | 3988 ft | 240 kts | 82° |
| 2026-04-15 13:05 | 41.16792 | 69.39254 | 4019 ft | 237 kts | 70° |
| 2026-04-15 13:06 | 41.17632 | 69.41104 | 4009 ft | 233 kts | 46° |
| 2026-04-15 13:06 | 41.18817 | 69.42495 | 3988 ft | 221 kts | 34° |
| 2026-04-15 13:06 | 41.19986 | 69.43783 | 3983 ft | 218 kts | 45° |
| 2026-04-15 13:06 | 41.20940 | 69.45338 | 4000 ft | 217 kts | 48° |
| 2026-04-15 13:07 | 41.22064 | 69.46596 | 3979 ft | 210 kts | 17° |
| 2026-04-15 13:07 | 41.23471 | 69.46787 | 4017 ft | 202 kts | 343° |
| 2026-04-15 13:07 | 41.24679 | 69.45909 | 3877 ft | 204 kts | 314° |
| 2026-04-15 13:07 | 41.25486 | 69.44345 | 3605 ft | 207 kts | 301° |
| 2026-04-15 13:08 | 41.26234 | 69.42743 | 3313 ft | 197 kts | 302° |
| 2026-04-15 13:08 | 41.26827 | 69.41231 | 3084 ft | 175 kts | 285° |
| 2026-04-15 13:08 | 41.26926 | 69.39682 | 2920 ft | 163 kts | 272° |
| 2026-04-15 13:08 | 41.26894 | 69.38215 | 2686 ft | 156 kts | 271° |
| 2026-04-15 13:09 | 41.26796 | 69.36773 | 2471 ft | 160 kts | 263° |
| 2026-04-15 13:09 | 41.26635 | 69.35287 | 2285 ft | 165 kts | 264° |
| 2026-04-15 13:09 | 41.26466 | 69.33768 | 2015 ft | 165 kts | 263° |
| 2026-04-15 13:09 | 41.26300 | 69.32262 | 1796 ft | 164 kts | 264° |
| 2026-04-15 13:10 | 41.26136 | 69.30748 | 1533 ft | 165 kts | 264° |
| 2026-04-15 13:10 | 41.25968 | 69.29269 | 1429 ft | 156 kts | 265° |
| 2026-04-15 13:10 | 41.25829 | 69.27968 | 1418 ft | 126 kts | 262° |
| 2026-04-15 13:10 | 41.25723 | 69.27002 | 1410 ft | 75 kts | 262° |
| 2026-04-15 13:11 | 41.25665 | 69.26477 | 1403 ft | 53 kts | 262° |
| 2026-04-15 13:11 | 41.25635 | 69.26209 | 1409 ft | 24 kts | 262° |
| 2026-04-15 13:11 | 41.25613 | 69.26009 | 1402 ft | 17 kts | 262° |
| 2026-04-15 13:11 | 41.25598 | 69.25867 | 1404 ft | 12 kts | 263° |
| 2026-04-15 13:12 | 41.25621 | 69.25784 | 1406 ft | 4 kts | 298° |
| 2026-04-15 13:12 | 41.25618 | 69.25753 | 1408 ft | 5 kts | 220° |
| 2026-04-15 13:12 | 41.25591 | 69.25793 | 1403 ft | 10 kts | 93° |
| 2026-04-15 13:12 | 41.25612 | 69.25911 | 1409 ft | 14 kts | 66° |
| 2026-04-15 13:13 | 41.25655 | 69.26028 | 1408 ft | 14 kts | 64° |
| 2026-04-15 13:13 | 41.25698 | 69.26144 | 1411 ft | 14 kts | 65° |
| 2026-04-15 13:13 | 41.25718 | 69.26205 | 1411 ft | 6 kts | 66° |
| 2026-04-15 13:13 | 41.25735 | 69.26254 | 1408 ft | 6 kts | 66° |
| 2026-04-15 13:14 | 41.25757 | 69.26308 | 1410 ft | 7 kts | 55° |
| 2026-04-15 13:14 | 41.25798 | 69.26363 | 1398 ft | 9 kts | 38° |
| 2026-04-15 13:14 | 41.25853 | 69.26420 | 1399 ft | 10 kts | 38° |
| 2026-04-15 13:14 | 41.25908 | 69.26479 | 1406 ft | 10 kts | 43° |
| 2026-04-15 13:15 | 41.25944 | 69.26561 | 1403 ft | 10 kts | 65° |
| 2026-04-15 13:15 | 41.25956 | 69.26636 | 1398 ft | 4 kts | 114° |
| 2026-04-15 13:15 | 41.25931 | 69.26661 | 1401 ft | 5 kts | 151° |
| 2026-04-15 13:15 | 41.25914 | 69.26673 | 1398 ft | 0 kts | 153° |